sensor_id;sensor_type;location;lat;lon;timestamp;P1;durP1;ratioP1;P2;durP2;ratioP2
20101;SDS011;10210;52.284;9.892;2023-02-20T00:00:22;18.33;;;8.97;;
20101;SDS011;10210;52.284;9.892;2023-02-20T00:02:52;16.30;;;8.53;;
20101;SDS011;10210;52.284;9.892;2023-02-20T00:05:18;17.47;;;8.30;;
20101;SDS011;10210;52.284;9.892;2023-02-20T00:07:44;16.57;;;8.20;;
20101;SDS011;10210;52.284;9.892;2023-02-20T00:10:10;17.53;;;8.47;;
20101;SDS011;10210;52.284;9.892;2023-02-20T00:12:36;18.03;;;7.93;;
20101;SDS011;10210;52.284;9.892;2023-02-20T00:15:02;17.47;;;8.23;;
20101;SDS011;10210;52.284;9.892;2023-02-20T00:17:30;16.53;;;8.30;;
20101;SDS011;10210;52.284;9.892;2023-02-20T00:19:56;18.27;;;8.33;;
20101;SDS011;10210;52.284;9.892;2023-02-20T00:22:22;16.00;;;7.70;;
20101;SDS011;10210;52.284;9.892;2023-02-20T00:24:48;16.10;;;7.70;;
20101;SDS011;10210;52.284;9.892;2023-02-20T00:27:14;17.13;;;7.87;;
20101;SDS011;10210;52.284;9.892;2023-02-20T00:29:40;16.43;;;7.47;;
20101;SDS011;10210;52.284;9.892;2023-02-20T00:32:08;15.43;;;7.37;;
20101;SDS011;10210;52.284;9.892;2023-02-20T00:34:33;14.93;;;7.27;;
20101;SDS011;10210;52.284;9.892;2023-02-20T00:36:59;15.57;;;7.27;;
20101;SDS011;10210;52.284;9.892;2023-02-20T00:39:25;18.10;;;8.00;;
20101;SDS011;10210;52.284;9.892;2023-02-20T00:41:50;17.27;;;7.33;;
20101;SDS011;10210;52.284;9.892;2023-02-20T00:44:16;15.33;;;7.43;;
20101;SDS011;10210;52.284;9.892;2023-02-20T00:46:42;14.30;;;6.43;;
20101;SDS011;10210;52.284;9.892;2023-02-20T00:49:08;14.93;;;6.70;;
20101;SDS011;10210;52.284;9.892;2023-02-20T00:51:33;16.03;;;7.33;;
20101;SDS011;10210;52.284;9.892;2023-02-20T00:54:00;14.50;;;6.40;;
20101;SDS011;10210;52.284;9.892;2023-02-20T00:56:26;15.23;;;6.37;;
20101;SDS011;10210;52.284;9.892;2023-02-20T00:58:52;15.17;;;6.47;;
20101;SDS011;10210;52.284;9.892;2023-02-20T01:01:27;14.60;;;6.61;;
20101;SDS011;10210;52.284;9.892;2023-02-20T01:03:52;14.13;;;6.10;;
20101;SDS011;10210;52.284;9.892;2023-02-20T01:06:18;15.53;;;6.80;;
20101;SDS011;10210;52.284;9.892;2023-02-20T01:08:44;14.07;;;6.47;;
20101;SDS011;10210;52.284;9.892;2023-02-20T01:11:09;14.43;;;6.80;;
20101;SDS011;10210;52.284;9.892;2023-02-20T01:13:35;14.33;;;6.90;;
20101;SDS011;10210;52.284;9.892;2023-02-20T01:16:01;13.50;;;6.23;;
20101;SDS011;10210;52.284;9.892;2023-02-20T01:18:28;15.63;;;7.37;;
20101;SDS011;10210;52.284;9.892;2023-02-20T01:20:53;15.63;;;6.83;;
20101;SDS011;10210;52.284;9.892;2023-02-20T01:23:19;13.50;;;6.47;;
20101;SDS011;10210;52.284;9.892;2023-02-20T01:25:45;14.73;;;7.00;;
20101;SDS011;10210;52.284;9.892;2023-02-20T01:28:10;13.47;;;6.27;;
20101;SDS011;10210;52.284;9.892;2023-02-20T01:30:36;14.13;;;6.57;;
20101;SDS011;10210;52.284;9.892;2023-02-20T01:33:02;13.20;;;6.40;;
20101;SDS011;10210;52.284;9.892;2023-02-20T01:35:28;13.30;;;6.20;;
20101;SDS011;10210;52.284;9.892;2023-02-20T01:37:57;12.37;;;5.73;;
20101;SDS011;10210;52.284;9.892;2023-02-20T01:40:24;16.20;;;6.30;;
20101;SDS011;10210;52.284;9.892;2023-02-20T01:42:52;13.13;;;6.30;;
20101;SDS011;10210;52.284;9.892;2023-02-20T01:47:50;14.43;;;6.30;;
20101;SDS011;10210;52.284;9.892;2023-02-20T01:50:20;13.87;;;6.77;;
20101;SDS011;10210;52.284;9.892;2023-02-20T01:52:53;13.83;;;6.50;;
20101;SDS011;10210;52.284;9.892;2023-02-20T01:55:26;14.37;;;6.50;;
20101;SDS011;10210;52.284;9.892;2023-02-20T01:58:05;14.30;;;6.67;;
20101;SDS011;10210;52.284;9.892;2023-02-20T02:00:40;14.37;;;6.80;;
20101;SDS011;10210;52.284;9.892;2023-02-20T02:03:09;13.13;;;6.20;;
20101;SDS011;10210;52.284;9.892;2023-02-20T02:05:39;14.83;;;6.43;;
20101;SDS011;10210;52.284;9.892;2023-02-20T02:08:12;12.40;;;6.00;;
20101;SDS011;10210;52.284;9.892;2023-02-20T02:10:46;12.90;;;5.93;;
20101;SDS011;10210;52.284;9.892;2023-02-20T02:13:30;14.10;;;6.27;;
20101;SDS011;10210;52.284;9.892;2023-02-20T02:18:46;13.47;;;6.40;;
20101;SDS011;10210;52.284;9.892;2023-02-20T02:21:41;14.00;;;6.17;;
20101;SDS011;10210;52.284;9.892;2023-02-20T02:27:29;14.63;;;6.97;;
20101;SDS011;10210;52.284;9.892;2023-02-20T02:30:24;15.60;;;7.70;;
20101;SDS011;10210;52.284;9.892;2023-02-20T02:33:20;15.17;;;7.50;;
20101;SDS011;10210;52.284;9.892;2023-02-20T02:39:07;15.53;;;8.77;;
20101;SDS011;10210;52.284;9.892;2023-02-20T02:47:47;17.13;;;8.57;;
20101;SDS011;10210;52.284;9.892;2023-02-20T02:50:38;17.30;;;8.63;;
20101;SDS011;10210;52.284;9.892;2023-02-20T02:53:08;16.67;;;8.37;;
20101;SDS011;10210;52.284;9.892;2023-02-20T02:55:37;17.23;;;9.10;;
20101;SDS011;10210;52.284;9.892;2023-02-20T02:58:03;18.30;;;9.20;;
20101;SDS011;10210;52.284;9.892;2023-02-20T03:01:14;16.73;;;8.97;;
20101;SDS011;10210;52.284;9.892;2023-02-20T03:03:32;17.73;;;9.60;;
20101;SDS011;10210;52.284;9.892;2023-02-20T03:08:43;18.90;;;9.77;;
20101;SDS011;10210;52.284;9.892;2023-02-20T03:11:21;20.43;;;10.40;;
20101;SDS011;10210;52.284;9.892;2023-02-20T03:13:51;19.60;;;10.83;;
20101;SDS011;10210;52.284;9.892;2023-02-20T03:17:04;19.27;;;10.53;;
20101;SDS011;10210;52.284;9.892;2023-02-20T03:19:57;20.57;;;11.47;;
20101;SDS011;10210;52.284;9.892;2023-02-20T03:22:40;19.97;;;11.30;;
20101;SDS011;10210;52.284;9.892;2023-02-20T03:25:22;20.10;;;11.93;;
20101;SDS011;10210;52.284;9.892;2023-02-20T03:27:58;19.23;;;11.13;;
20101;SDS011;10210;52.284;9.892;2023-02-20T03:30:44;20.67;;;11.73;;
20101;SDS011;10210;52.284;9.892;2023-02-20T03:33:35;19.53;;;11.93;;
20101;SDS011;10210;52.284;9.892;2023-02-20T03:36:38;20.93;;;11.87;;
20101;SDS011;10210;52.284;9.892;2023-02-20T03:39:32;22.63;;;13.40;;
20101;SDS011;10210;52.284;9.892;2023-02-20T03:42:24;22.33;;;13.70;;
20101;SDS011;10210;52.284;9.892;2023-02-20T03:45:13;27.30;;;16.87;;
20101;SDS011;10210;52.284;9.892;2023-02-20T03:47:43;24.97;;;16.00;;
20101;SDS011;10210;52.284;9.892;2023-02-20T03:50:14;25.53;;;17.17;;
20101;SDS011;10210;52.284;9.892;2023-02-20T03:52:59;27.13;;;18.07;;
20101;SDS011;10210;52.284;9.892;2023-02-20T03:55:25;28.37;;;18.07;;
20101;SDS011;10210;52.284;9.892;2023-02-20T03:57:52;26.83;;;18.40;;
20101;SDS011;10210;52.284;9.892;2023-02-20T04:00:26;29.87;;;18.63;;
20101;SDS011;10210;52.284;9.892;2023-02-20T04:02:57;26.13;;;17.33;;
20101;SDS011;10210;52.284;9.892;2023-02-20T04:05:34;27.87;;;18.20;;
20101;SDS011;10210;52.284;9.892;2023-02-20T04:08:23;28.50;;;18.53;;
20101;SDS011;10210;52.284;9.892;2023-02-20T04:11:10;28.50;;;18.77;;
20101;SDS011;10210;52.284;9.892;2023-02-20T04:13:47;28.80;;;18.53;;
20101;SDS011;10210;52.284;9.892;2023-02-20T04:16:17;28.60;;;18.97;;
20101;SDS011;10210;52.284;9.892;2023-02-20T04:18:44;28.70;;;17.53;;
20101;SDS011;10210;52.284;9.892;2023-02-20T04:21:27;29.24;;;18.84;;
20101;SDS011;10210;52.284;9.892;2023-02-20T04:24:06;28.43;;;18.30;;
20101;SDS011;10210;52.284;9.892;2023-02-20T04:26:41;27.67;;;17.47;;
20101;SDS011;10210;52.284;9.892;2023-02-20T04:29:07;26.90;;;17.37;;
20101;SDS011;10210;52.284;9.892;2023-02-20T04:31:33;28.13;;;17.40;;
20101;SDS011;10210;52.284;9.892;2023-02-20T04:33:59;26.73;;;16.90;;
20101;SDS011;10210;52.284;9.892;2023-02-20T04:36:24;26.43;;;17.23;;
20101;SDS011;10210;52.284;9.892;2023-02-20T04:38:51;28.60;;;16.97;;
20101;SDS011;10210;52.284;9.892;2023-02-20T04:41:17;26.20;;;16.87;;
20101;SDS011;10210;52.284;9.892;2023-02-20T04:43:42;25.63;;;15.53;;
20101;SDS011;10210;52.284;9.892;2023-02-20T04:46:08;26.30;;;16.23;;
20101;SDS011;10210;52.284;9.892;2023-02-20T04:48:34;27.43;;;15.77;;
20101;SDS011;10210;52.284;9.892;2023-02-20T04:50:59;26.40;;;15.70;;
20101;SDS011;10210;52.284;9.892;2023-02-20T04:53:25;26.70;;;16.00;;
20101;SDS011;10210;52.284;9.892;2023-02-20T04:55:50;24.83;;;15.60;;
20101;SDS011;10210;52.284;9.892;2023-02-20T04:58:16;25.20;;;14.87;;
20101;SDS011;10210;52.284;9.892;2023-02-20T05:00:42;25.53;;;15.47;;
20101;SDS011;10210;52.284;9.892;2023-02-20T05:03:07;26.47;;;15.40;;
20101;SDS011;10210;52.284;9.892;2023-02-20T05:05:33;26.03;;;14.73;;
20101;SDS011;10210;52.284;9.892;2023-02-20T05:08:00;24.47;;;14.10;;
20101;SDS011;10210;52.284;9.892;2023-02-20T05:10:29;26.13;;;14.77;;
20101;SDS011;10210;52.284;9.892;2023-02-20T05:12:56;24.87;;;14.37;;
20101;SDS011;10210;52.284;9.892;2023-02-20T05:15:24;24.70;;;14.13;;
20101;SDS011;10210;52.284;9.892;2023-02-20T05:17:51;26.17;;;13.83;;
20101;SDS011;10210;52.284;9.892;2023-02-20T05:20:18;22.07;;;12.60;;
20101;SDS011;10210;52.284;9.892;2023-02-20T05:22:45;23.73;;;12.73;;
20101;SDS011;10210;52.284;9.892;2023-02-20T05:25:12;20.07;;;11.33;;
20101;SDS011;10210;52.284;9.892;2023-02-20T05:27:39;21.37;;;12.27;;
20101;SDS011;10210;52.284;9.892;2023-02-20T05:30:07;24.60;;;12.40;;
20101;SDS011;10210;52.284;9.892;2023-02-20T05:32:33;21.80;;;10.77;;
20101;SDS011;10210;52.284;9.892;2023-02-20T05:34:59;22.47;;;10.47;;
20101;SDS011;10210;52.284;9.892;2023-02-20T05:37:26;21.17;;;10.63;;
20101;SDS011;10210;52.284;9.892;2023-02-20T05:39:52;21.93;;;10.80;;
20101;SDS011;10210;52.284;9.892;2023-02-20T05:42:18;21.23;;;10.60;;
20101;SDS011;10210;52.284;9.892;2023-02-20T05:44:45;19.93;;;9.93;;
20101;SDS011;10210;52.284;9.892;2023-02-20T05:47:13;22.07;;;10.40;;
20101;SDS011;10210;52.284;9.892;2023-02-20T05:49:39;19.63;;;9.50;;
20101;SDS011;10210;52.284;9.892;2023-02-20T05:52:05;21.23;;;9.33;;
20101;SDS011;10210;52.284;9.892;2023-02-20T05:54:35;19.60;;;9.33;;
20101;SDS011;10210;52.284;9.892;2023-02-20T05:57:03;18.80;;;8.80;;
20101;SDS011;10210;52.284;9.892;2023-02-20T05:59:29;20.17;;;8.77;;
20101;SDS011;10210;52.284;9.892;2023-02-20T06:01:55;17.73;;;8.83;;
20101;SDS011;10210;52.284;9.892;2023-02-20T06:04:23;19.70;;;8.00;;
20101;SDS011;10210;52.284;9.892;2023-02-20T06:06:49;19.47;;;8.47;;
20101;SDS011;10210;52.284;9.892;2023-02-20T06:09:15;18.73;;;8.53;;
20101;SDS011;10210;52.284;9.892;2023-02-20T06:11:45;19.00;;;8.30;;
20101;SDS011;10210;52.284;9.892;2023-02-20T06:14:15;20.80;;;8.53;;
20101;SDS011;10210;52.284;9.892;2023-02-20T06:16:42;17.93;;;7.73;;
20101;SDS011;10210;52.284;9.892;2023-02-20T06:19:09;19.97;;;8.33;;
20101;SDS011;10210;52.284;9.892;2023-02-20T06:21:35;15.90;;;7.50;;
20101;SDS011;10210;52.284;9.892;2023-02-20T06:24:04;18.60;;;8.43;;
20101;SDS011;10210;52.284;9.892;2023-02-20T06:26:31;19.07;;;8.10;;
20101;SDS011;10210;52.284;9.892;2023-02-20T06:28:56;17.37;;;7.63;;
20101;SDS011;10210;52.284;9.892;2023-02-20T06:31:23;17.93;;;7.47;;
20101;SDS011;10210;52.284;9.892;2023-02-20T06:33:52;16.80;;;7.27;;
20101;SDS011;10210;52.284;9.892;2023-02-20T06:36:26;17.17;;;7.17;;
20101;SDS011;10210;52.284;9.892;2023-02-20T06:38:55;15.40;;;6.63;;
20101;SDS011;10210;52.284;9.892;2023-02-20T06:41:21;16.57;;;7.23;;
20101;SDS011;10210;52.284;9.892;2023-02-20T06:43:47;16.50;;;6.63;;
20101;SDS011;10210;52.284;9.892;2023-02-20T06:46:13;17.17;;;6.87;;
20101;SDS011;10210;52.284;9.892;2023-02-20T06:48:45;20.20;;;7.33;;
20101;SDS011;10210;52.284;9.892;2023-02-20T06:51:18;17.70;;;6.80;;
20101;SDS011;10210;52.284;9.892;2023-02-20T06:53:47;18.03;;;6.57;;
20101;SDS011;10210;52.284;9.892;2023-02-20T06:56:14;18.17;;;6.97;;
20101;SDS011;10210;52.284;9.892;2023-02-20T06:58:50;15.93;;;6.43;;
20101;SDS011;10210;52.284;9.892;2023-02-20T07:01:18;17.63;;;7.13;;
20101;SDS011;10210;52.284;9.892;2023-02-20T07:03:47;18.00;;;6.73;;
20101;SDS011;10210;52.284;9.892;2023-02-20T07:06:14;16.27;;;6.43;;
20101;SDS011;10210;52.284;9.892;2023-02-20T07:08:41;16.30;;;6.60;;
20101;SDS011;10210;52.284;9.892;2023-02-20T07:11:06;17.30;;;6.57;;
20101;SDS011;10210;52.284;9.892;2023-02-20T07:13:32;18.77;;;6.93;;
20101;SDS011;10210;52.284;9.892;2023-02-20T07:15:58;16.33;;;6.40;;
20101;SDS011;10210;52.284;9.892;2023-02-20T07:18:24;18.30;;;6.97;;
20101;SDS011;10210;52.284;9.892;2023-02-20T07:20:51;17.53;;;6.90;;
20101;SDS011;10210;52.284;9.892;2023-02-20T07:23:18;15.73;;;6.70;;
20101;SDS011;10210;52.284;9.892;2023-02-20T07:25:45;18.37;;;8.37;;
20101;SDS011;10210;52.284;9.892;2023-02-20T07:28:11;18.17;;;7.20;;
20101;SDS011;10210;52.284;9.892;2023-02-20T07:30:38;18.17;;;7.47;;
20101;SDS011;10210;52.284;9.892;2023-02-20T07:33:04;19.67;;;7.97;;
20101;SDS011;10210;52.284;9.892;2023-02-20T07:35:29;18.47;;;8.07;;
20101;SDS011;10210;52.284;9.892;2023-02-20T07:37:55;18.90;;;7.93;;
20101;SDS011;10210;52.284;9.892;2023-02-20T07:40:21;17.33;;;8.00;;
20101;SDS011;10210;52.284;9.892;2023-02-20T07:42:46;19.57;;;8.83;;
20101;SDS011;10210;52.284;9.892;2023-02-20T07:45:12;18.83;;;8.10;;
20101;SDS011;10210;52.284;9.892;2023-02-20T07:47:37;20.87;;;8.80;;
20101;SDS011;10210;52.284;9.892;2023-02-20T07:50:03;19.67;;;8.10;;
20101;SDS011;10210;52.284;9.892;2023-02-20T07:52:29;18.93;;;8.47;;
20101;SDS011;10210;52.284;9.892;2023-02-20T07:54:55;20.97;;;9.30;;
20101;SDS011;10210;52.284;9.892;2023-02-20T07:57:20;19.87;;;9.33;;
20101;SDS011;10210;52.284;9.892;2023-02-20T07:59:46;21.53;;;9.90;;
20101;SDS011;10210;52.284;9.892;2023-02-20T08:02:12;21.10;;;10.07;;
20101;SDS011;10210;52.284;9.892;2023-02-20T08:04:37;22.90;;;10.33;;
20101;SDS011;10210;52.284;9.892;2023-02-20T08:07:03;18.10;;;9.90;;
20101;SDS011;10210;52.284;9.892;2023-02-20T08:09:31;18.90;;;10.10;;
20101;SDS011;10210;52.284;9.892;2023-02-20T08:11:57;20.07;;;10.10;;
20101;SDS011;10210;52.284;9.892;2023-02-20T08:14:23;21.63;;;11.23;;
20101;SDS011;10210;52.284;9.892;2023-02-20T08:16:49;20.30;;;11.07;;
20101;SDS011;10210;52.284;9.892;2023-02-20T08:19:14;20.80;;;11.30;;
20101;SDS011;10210;52.284;9.892;2023-02-20T08:21:40;21.37;;;11.17;;
20101;SDS011;10210;52.284;9.892;2023-02-20T08:24:06;22.60;;;11.80;;
20101;SDS011;10210;52.284;9.892;2023-02-20T08:26:32;22.07;;;12.13;;
20101;SDS011;10210;52.284;9.892;2023-02-20T08:28:58;22.70;;;12.00;;
20101;SDS011;10210;52.284;9.892;2023-02-20T08:31:25;26.90;;;12.83;;
20101;SDS011;10210;52.284;9.892;2023-02-20T08:33:52;23.57;;;12.43;;
20101;SDS011;10210;52.284;9.892;2023-02-20T08:36:18;23.43;;;13.20;;
20101;SDS011;10210;52.284;9.892;2023-02-20T08:38:43;23.03;;;12.67;;
20101;SDS011;10210;52.284;9.892;2023-02-20T08:41:10;23.90;;;12.83;;
20101;SDS011;10210;52.284;9.892;2023-02-20T08:43:37;24.33;;;13.20;;
20101;SDS011;10210;52.284;9.892;2023-02-20T08:46:05;24.67;;;13.77;;
20101;SDS011;10210;52.284;9.892;2023-02-20T08:48:31;23.50;;;13.87;;
20101;SDS011;10210;52.284;9.892;2023-02-20T08:50:58;24.70;;;14.50;;
20101;SDS011;10210;52.284;9.892;2023-02-20T08:53:23;23.53;;;14.47;;
20101;SDS011;10210;52.284;9.892;2023-02-20T08:55:49;24.33;;;13.93;;
20101;SDS011;10210;52.284;9.892;2023-02-20T08:58:19;24.27;;;14.67;;
20101;SDS011;10210;52.284;9.892;2023-02-20T09:00:46;25.67;;;15.37;;
20101;SDS011;10210;52.284;9.892;2023-02-20T09:03:13;26.57;;;15.47;;
20101;SDS011;10210;52.284;9.892;2023-02-20T09:05:39;29.13;;;17.37;;
20101;SDS011;10210;52.284;9.892;2023-02-20T09:08:06;29.43;;;17.00;;
20101;SDS011;10210;52.284;9.892;2023-02-20T09:10:32;31.17;;;17.50;;
20101;SDS011;10210;52.284;9.892;2023-02-20T09:12:58;26.93;;;17.47;;
20101;SDS011;10210;52.284;9.892;2023-02-20T09:15:24;28.20;;;17.70;;
20101;SDS011;10210;52.284;9.892;2023-02-20T09:17:50;31.80;;;19.67;;
20101;SDS011;10210;52.284;9.892;2023-02-20T09:20:18;29.93;;;18.33;;
20101;SDS011;10210;52.284;9.892;2023-02-20T09:22:46;29.10;;;18.33;;
20101;SDS011;10210;52.284;9.892;2023-02-20T09:25:13;27.73;;;18.43;;
20101;SDS011;10210;52.284;9.892;2023-02-20T09:27:40;28.43;;;19.03;;
20101;SDS011;10210;52.284;9.892;2023-02-20T09:30:08;28.57;;;19.70;;
20101;SDS011;10210;52.284;9.892;2023-02-20T09:32:41;31.47;;;19.57;;
20101;SDS011;10210;52.284;9.892;2023-02-20T09:35:06;30.43;;;20.07;;
20101;SDS011;10210;52.284;9.892;2023-02-20T09:37:37;30.30;;;19.50;;
20101;SDS011;10210;52.284;9.892;2023-02-20T09:40:03;33.30;;;20.53;;
20101;SDS011;10210;52.284;9.892;2023-02-20T09:42:42;32.83;;;20.97;;
20101;SDS011;10210;52.284;9.892;2023-02-20T09:45:52;29.23;;;19.83;;
20101;SDS011;10210;52.284;9.892;2023-02-20T09:48:48;31.97;;;21.20;;
20101;SDS011;10210;52.284;9.892;2023-02-20T09:51:28;31.27;;;19.57;;
20101;SDS011;10210;52.284;9.892;2023-02-20T09:54:01;32.23;;;21.17;;
20101;SDS011;10210;52.284;9.892;2023-02-20T09:56:58;33.27;;;21.47;;
20101;SDS011;10210;52.284;9.892;2023-02-20T09:59:36;31.17;;;20.53;;
20101;SDS011;10210;52.284;9.892;2023-02-20T10:02:31;33.77;;;21.50;;
20101;SDS011;10210;52.284;9.892;2023-02-20T10:05:05;33.03;;;22.73;;
20101;SDS011;10210;52.284;9.892;2023-02-20T10:07:47;33.17;;;21.23;;
20101;SDS011;10210;52.284;9.892;2023-02-20T10:10:17;31.73;;;20.67;;
20101;SDS011;10210;52.284;9.892;2023-02-20T10:18:49;32.03;;;20.97;;
20101;SDS011;10210;52.284;9.892;2023-02-20T10:30:41;32.03;;;19.57;;
20101;SDS011;10210;52.284;9.892;2023-02-20T10:33:29;31.43;;;20.10;;
20101;SDS011;10210;52.284;9.892;2023-02-20T10:36:20;32.43;;;21.73;;
20101;SDS011;10210;52.284;9.892;2023-02-20T10:39:00;32.00;;;19.00;;
20101;SDS011;10210;52.284;9.892;2023-02-20T10:46:49;32.63;;;21.60;;
20101;SDS011;10210;52.284;9.892;2023-02-20T10:49:30;35.93;;;23.30;;
20101;SDS011;10210;52.284;9.892;2023-02-20T10:52:17;36.73;;;22.17;;
20101;SDS011;10210;52.284;9.892;2023-02-20T10:54:53;35.53;;;23.30;;
20101;SDS011;10210;52.284;9.892;2023-02-20T10:57:55;32.80;;;21.10;;
20101;SDS011;10210;52.284;9.892;2023-02-20T11:00:32;34.27;;;22.70;;
20101;SDS011;10210;52.284;9.892;2023-02-20T11:03:42;38.43;;;22.70;;
20101;SDS011;10210;52.284;9.892;2023-02-20T11:06:17;36.70;;;23.67;;
20101;SDS011;10210;52.284;9.892;2023-02-20T11:08:47;35.00;;;22.83;;
20101;SDS011;10210;52.284;9.892;2023-02-20T11:11:28;42.27;;;23.73;;
20101;SDS011;10210;52.284;9.892;2023-02-20T11:17:04;36.53;;;22.37;;
20101;SDS011;10210;52.284;9.892;2023-02-20T11:19:39;38.33;;;22.83;;
20101;SDS011;10210;52.284;9.892;2023-02-20T11:22:09;35.43;;;22.83;;
20101;SDS011;10210;52.284;9.892;2023-02-20T11:24:37;36.83;;;21.77;;
20101;SDS011;10210;52.284;9.892;2023-02-20T11:27:12;35.83;;;21.27;;
20101;SDS011;10210;52.284;9.892;2023-02-20T11:32:17;32.73;;;20.67;;
20101;SDS011;10210;52.284;9.892;2023-02-20T11:37:44;33.80;;;20.60;;
20101;SDS011;10210;52.284;9.892;2023-02-20T11:40:26;35.27;;;20.63;;
20101;SDS011;10210;52.284;9.892;2023-02-20T11:42:54;34.03;;;20.07;;
20101;SDS011;10210;52.284;9.892;2023-02-20T11:45:22;35.13;;;21.10;;
20101;SDS011;10210;52.284;9.892;2023-02-20T11:48:06;32.90;;;20.93;;
20101;SDS011;10210;52.284;9.892;2023-02-20T11:50:52;32.77;;;20.17;;
20101;SDS011;10210;52.284;9.892;2023-02-20T11:56:13;33.63;;;20.30;;
20101;SDS011;10210;52.284;9.892;2023-02-20T11:58:44;33.27;;;19.60;;
20101;SDS011;10210;52.284;9.892;2023-02-20T12:01:53;34.03;;;20.43;;
20101;SDS011;10210;52.284;9.892;2023-02-20T12:04:12;33.20;;;19.13;;
20101;SDS011;10210;52.284;9.892;2023-02-20T12:06:46;34.87;;;20.90;;
20101;SDS011;10210;52.284;9.892;2023-02-20T12:09:19;39.33;;;21.13;;
20101;SDS011;10210;52.284;9.892;2023-02-20T12:11:52;36.67;;;20.60;;
20101;SDS011;10210;52.284;9.892;2023-02-20T12:14:21;36.57;;;21.53;;
20101;SDS011;10210;52.284;9.892;2023-02-20T12:20:08;36.50;;;20.47;;
20101;SDS011;10210;52.284;9.892;2023-02-20T12:28:55;34.83;;;19.30;;
20101;SDS011;10210;52.284;9.892;2023-02-20T12:34:53;36.70;;;21.03;;
20101;SDS011;10210;52.284;9.892;2023-02-20T12:37:44;32.10;;;18.93;;
20101;SDS011;10210;52.284;9.892;2023-02-20T12:40:57;31.87;;;18.63;;
20101;SDS011;10210;52.284;9.892;2023-02-20T12:43:45;32.73;;;17.80;;
20101;SDS011;10210;52.284;9.892;2023-02-20T12:53:00;33.03;;;19.33;;
20101;SDS011;10210;52.284;9.892;2023-02-20T12:55:45;30.67;;;17.33;;
20101;SDS011;10210;52.284;9.892;2023-02-20T12:58:33;33.50;;;18.83;;
20101;SDS011;10210;52.284;9.892;2023-02-20T13:01:28;31.00;;;18.27;;
20101;SDS011;10210;52.284;9.892;2023-02-20T13:07:09;32.20;;;18.17;;
20101;SDS011;10210;52.284;9.892;2023-02-20T13:09:52;31.87;;;18.00;;
20101;SDS011;10210;52.284;9.892;2023-02-20T13:12:28;32.07;;;18.37;;
20101;SDS011;10210;52.284;9.892;2023-02-20T13:20:32;31.13;;;17.53;;
20101;SDS011;10210;52.284;9.892;2023-02-20T13:25:43;32.27;;;17.83;;
20101;SDS011;10210;52.284;9.892;2023-02-20T13:30:36;30.10;;;17.90;;
20101;SDS011;10210;52.284;9.892;2023-02-20T13:33:27;28.33;;;15.67;;
20101;SDS011;10210;52.284;9.892;2023-02-20T13:35:54;27.37;;;15.73;;
20101;SDS011;10210;52.284;9.892;2023-02-20T13:38:22;28.27;;;15.30;;
20101;SDS011;10210;52.284;9.892;2023-02-20T13:54:02;23.47;;;12.53;;
20101;SDS011;10210;52.284;9.892;2023-02-20T13:56:55;27.30;;;13.83;;
20101;SDS011;10210;52.284;9.892;2023-02-20T13:59:27;24.50;;;13.07;;
20101;SDS011;10210;52.284;9.892;2023-02-20T14:01:54;26.97;;;13.53;;
20101;SDS011;10210;52.284;9.892;2023-02-20T14:04:29;26.33;;;14.27;;
20101;SDS011;10210;52.284;9.892;2023-02-20T14:06:56;25.30;;;13.50;;
20101;SDS011;10210;52.284;9.892;2023-02-20T14:09:23;23.13;;;12.73;;
20101;SDS011;10210;52.284;9.892;2023-02-20T14:12:00;24.47;;;12.20;;
20101;SDS011;10210;52.284;9.892;2023-02-20T14:14:36;26.93;;;14.93;;
20101;SDS011;10210;52.284;9.892;2023-02-20T14:17:12;32.20;;;16.83;;
20101;SDS011;10210;52.284;9.892;2023-02-20T14:19:57;25.83;;;14.17;;
20101;SDS011;10210;52.284;9.892;2023-02-20T14:22:28;27.07;;;14.80;;
20101;SDS011;10210;52.284;9.892;2023-02-20T14:28:04;21.60;;;11.20;;
20101;SDS011;10210;52.284;9.892;2023-02-20T14:30:40;20.43;;;11.10;;
20101;SDS011;10210;52.284;9.892;2023-02-20T14:33:18;21.10;;;10.73;;
20101;SDS011;10210;52.284;9.892;2023-02-20T14:41:51;20.93;;;10.27;;
20101;SDS011;10210;52.284;9.892;2023-02-20T14:44:23;20.70;;;10.67;;
20101;SDS011;10210;52.284;9.892;2023-02-20T14:46:51;23.67;;;11.37;;
20101;SDS011;10210;52.284;9.892;2023-02-20T14:49:28;22.90;;;10.67;;
20101;SDS011;10210;52.284;9.892;2023-02-20T14:55:00;20.10;;;9.80;;
20101;SDS011;10210;52.284;9.892;2023-02-20T14:57:31;23.00;;;11.27;;
20101;SDS011;10210;52.284;9.892;2023-02-20T15:02:51;20.87;;;11.07;;
20101;SDS011;10210;52.284;9.892;2023-02-20T15:05:24;22.23;;;11.83;;
20101;SDS011;10210;52.284;9.892;2023-02-20T15:08:03;21.10;;;10.60;;
20101;SDS011;10210;52.284;9.892;2023-02-20T15:10:49;18.60;;;9.20;;
20101;SDS011;10210;52.284;9.892;2023-02-20T15:13:22;20.17;;;9.07;;
20101;SDS011;10210;52.284;9.892;2023-02-20T15:16:05;20.00;;;9.67;;
20101;SDS011;10210;52.284;9.892;2023-02-20T15:18:40;17.77;;;8.73;;
20101;SDS011;10210;52.284;9.892;2023-02-20T15:21:08;18.20;;;9.23;;
20101;SDS011;10210;52.284;9.892;2023-02-20T15:23:41;26.60;;;15.33;;
20101;SDS011;10210;52.284;9.892;2023-02-20T15:26:32;20.20;;;9.80;;
20101;SDS011;10210;52.284;9.892;2023-02-20T15:31:58;19.23;;;9.77;;
20101;SDS011;10210;52.284;9.892;2023-02-20T15:34:32;17.13;;;8.30;;
20101;SDS011;10210;52.284;9.892;2023-02-20T15:37:04;17.00;;;8.40;;
20101;SDS011;10210;52.284;9.892;2023-02-20T15:40:04;18.33;;;8.30;;
20101;SDS011;10210;52.284;9.892;2023-02-20T15:43:00;18.77;;;8.43;;
20101;SDS011;10210;52.284;9.892;2023-02-20T15:45:27;18.33;;;8.47;;
20101;SDS011;10210;52.284;9.892;2023-02-20T15:47:55;18.43;;;8.10;;
20101;SDS011;10210;52.284;9.892;2023-02-20T15:50:22;16.85;;;8.57;;
20101;SDS011;10210;52.284;9.892;2023-02-20T15:52:51;16.97;;;7.83;;
20101;SDS011;10210;52.284;9.892;2023-02-20T15:55:18;17.97;;;7.50;;
20101;SDS011;10210;52.284;9.892;2023-02-20T15:57:47;17.67;;;7.93;;
20101;SDS011;10210;52.284;9.892;2023-02-20T16:00:21;16.83;;;9.00;;
20101;SDS011;10210;52.284;9.892;2023-02-20T16:02:54;17.60;;;8.30;;
20101;SDS011;10210;52.284;9.892;2023-02-20T16:05:20;17.13;;;7.97;;
20101;SDS011;10210;52.284;9.892;2023-02-20T16:07:46;16.57;;;7.60;;
20101;SDS011;10210;52.284;9.892;2023-02-20T16:10:16;18.10;;;8.10;;
20101;SDS011;10210;52.284;9.892;2023-02-20T16:12:45;14.70;;;7.13;;
20101;SDS011;10210;52.284;9.892;2023-02-20T16:15:16;18.30;;;6.93;;
20101;SDS011;10210;52.284;9.892;2023-02-20T16:17:46;17.03;;;8.10;;
20101;SDS011;10210;52.284;9.892;2023-02-20T16:20:18;15.73;;;7.20;;
20101;SDS011;10210;52.284;9.892;2023-02-20T16:22:50;15.07;;;6.53;;
20101;SDS011;10210;52.284;9.892;2023-02-20T16:25:17;16.03;;;7.03;;
20101;SDS011;10210;52.284;9.892;2023-02-20T16:27:45;14.30;;;6.60;;
20101;SDS011;10210;52.284;9.892;2023-02-20T16:30:18;15.93;;;7.60;;
20101;SDS011;10210;52.284;9.892;2023-02-20T16:32:49;15.63;;;6.73;;
20101;SDS011;10210;52.284;9.892;2023-02-20T16:35:16;14.83;;;6.27;;
20101;SDS011;10210;52.284;9.892;2023-02-20T16:37:41;16.03;;;6.67;;
20101;SDS011;10210;52.284;9.892;2023-02-20T16:40:07;16.17;;;6.57;;
20101;SDS011;10210;52.284;9.892;2023-02-20T16:42:34;15.50;;;7.00;;
20101;SDS011;10210;52.284;9.892;2023-02-20T16:47:47;15.93;;;6.73;;
20101;SDS011;10210;52.284;9.892;2023-02-20T16:50:17;13.93;;;6.33;;
20101;SDS011;10210;52.284;9.892;2023-02-20T16:52:47;17.13;;;9.00;;
20101;SDS011;10210;52.284;9.892;2023-02-20T16:55:26;13.90;;;6.47;;